Latest Weather Observations for Rocky Gully South

IDW60801

Issued at 7:33 pm WST Friday 30 September 2016 (issued every 30 minutes, with the page automatically refreshed every 10 minutes)

About weather observations | Map of weather stations | Latest weather observations for WA | Other Formats
Station Details ID: 009964 Name: ROCKY GULLY Lat: -34.57 Lon: 117.01 Height: 250.0 m
Data from the previous 72 hours. | See also: Recent months at Rocky Gully South
Date/Time
WST
Temp
°C
App
Temp
°C
Dew
Point
°C
Rel
Hum
%
Delta-T
°C
Wind Press
QNH
hPa
Press
MSL
hPa
Rain since
9am
mm
Dir  Spd
km/h
Gust
km/h
Spd
kts
Gust
kts
30/07:30pm 11.0 8.8 7.7 80 1.6 WNW 9 19 5 10 - - 1.0
30/07:00pm 11.4 8.6 8.4 82 1.5 WNW 13 33 7 18 - - 1.0
30/06:30pm 11.4 8.6 8.4 82 1.5 WNW 13 30 7 16 - - 1.0
30/06:00pm 12.1 9.6 8.2 77 1.9 W 11 20 6 11 - - 1.0
30/05:30pm 13.3 10.6 7.5 68 2.9 WNW 11 22 6 12 - - 1.0
30/05:00pm 14.1 9.7 7.6 65 3.2 WNW 20 33 11 18 - - 1.0
30/04:30pm 14.5 9.1 8.2 66 3.2 WNW 26 48 14 26 - - 1.0
30/04:28pm 14.4 8.6 8.1 66 3.2 WNW 28 48 15 26 - - 1.0
30/04:00pm 13.8 9.3 8.4 70 2.7 WNW 22 39 12 21 - - 1.0
30/03:30pm 13.2 8.6 9.5 78 1.9 W 24 54 13 29 - - 1.0
30/03:00pm 13.4 10.1 9.5 77 2.0 WNW 17 26 9 14 - - 1.0
30/02:30pm 15.3 10.9 9.0 66 3.3 WNW 22 43 12 23 - - 1.0
30/02:00pm 14.9 11.0 9.3 69 2.9 W 20 43 11 23 - - 1.0
30/01:30pm 13.7 10.4 9.7 77 2.1 WNW 17 46 9 25 - - 1.0
30/01:00pm 14.6 10.6 9.0 69 2.9 NW 20 37 11 20 - - 0.6
30/12:30pm 13.7 10.2 10.3 80 1.8 WNW 19 35 10 19 - - 0.6
30/12:00pm 14.6 10.5 8.8 68 3.0 WNW 20 32 11 17 - - 0.4
30/11:30am 14.1 11.2 9.5 74 2.4 W 15 30 8 16 - - 0.4
30/11:00am 15.0 10.5 8.7 66 3.2 NW 22 44 12 24 - - 0.4
30/10:30am 13.4 10.0 9.1 75 2.2 WNW 17 28 9 15 - - 0.4
30/10:00am 12.1 8.8 9.5 84 1.3 NW 17 26 9 14 - - 0.4
30/09:30am 11.1 7.8 9.4 89 0.9 NW 17 32 9 17 - - 0.4
30/09:00am 10.9 7.8 8.7 86 1.1 NW 15 26 8 14 - - 0.2
30/08:30am 11.8 7.9 7.3 74 2.2 NNW 17 33 9 18 - - 0.2
30/08:00am 11.7 7.2 7.0 73 2.3 NNW 20 37 11 20 - - 0.2
30/07:30am 10.4 6.3 6.4 76 1.9 NNW 17 32 9 17 - - 0.2
30/07:00am 9.2 5.4 5.8 79 1.6 NNW 15 28 8 15 - - 0.2
30/06:30am 8.7 4.8 5.3 79 1.5 N 15 26 8 14 - - 0.2
30/06:00am 8.2 4.7 5.3 82 1.3 N 13 20 7 11 - - 0.2
30/05:30am 8.1 5.0 5.6 84 1.1 N 11 19 6 10 - - 0.2
30/05:00am 7.4 4.7 5.4 87 0.9 N 9 15 5 8 - - 0.2
30/04:30am 7.1 4.4 5.4 89 0.8 N 9 13 5 7 - - 0.2
30/04:00am 6.9 3.8 5.4 90 0.7 N 11 17 6 9 - - 0.2
30/03:30am 6.5 3.7 5.1 91 0.6 N 9 15 5 8 - - 0.2
30/03:00am 6.0 3.5 4.5 90 0.7 N 7 11 4 6 - - 0.2
30/02:30am 6.1 3.2 4.6 90 0.7 N 9 13 5 7 - - 0.2
30/02:00am 6.0 3.4 4.3 89 0.7 N 7 11 4 6 - - 0.2
30/01:30am 5.9 3.3 4.2 89 0.7 N 7 11 4 6 - - 0.2
30/01:00am 6.3 3.8 4.5 88 0.8 N 7 9 4 5 - - 0.2
30/12:30am 6.7 4.4 4.7 87 0.9 N 6 7 3 4 - - 0.2
30/12:00am 7.4 5.6 5.4 87 0.9 N 4 7 2 4 - - 0.2
 
Date/Time
WST
Temp
°C
App
Temp
°C
Dew
Point
°C
Rel
Hum
%
Delta-T
°C
Wind Press
QNH
hPa
Press
MSL
hPa
Rain since
9am
mm
Dir  Spd
km/h
Gust
km/h
Spd
kts
Gust
kts
29/11:30pm 7.3 4.9 5.3 87 0.9 N 7 9 4 5 - - 0.2
29/11:00pm 7.4 5.2 5.4 87 0.9 N 6 9 3 5 - - 0.2
29/10:30pm 7.4 5.2 5.4 87 0.9 N 6 7 3 4 - - 0.2
29/10:00pm 7.7 5.5 5.5 86 1.0 N 6 7 3 4 - - 0.2
29/09:30pm 8.2 6.0 5.5 83 1.2 NNE 6 9 3 5 - - 0.2
29/09:00pm 8.2 7.1 5.3 82 1.3 CALM 0 0 0 0 - - 0.2
29/08:30pm 9.1 6.9 5.5 78 1.7 ESE 6 9 3 5 - - 0.2
29/08:00pm 9.7 8.4 5.9 77 1.8 SSE 2 6 1 3 - - 0.2
29/07:30pm 10.1 7.5 5.9 75 2.0 S 9 13 5 7 - - 0.2
29/07:00pm 10.2 8.7 5.2 71 2.3 N 2 6 1 3 - - 0.2
29/06:30pm 10.7 9.3 5.5 70 2.4 N 2 6 1 3 - - 0.2
29/06:00pm 11.8 9.7 5.9 67 2.8 NNE 6 7 3 4 - - 0.2
29/05:30pm 12.8 11.4 5.5 61 3.5 N 2 9 1 5 - - 0.2
29/05:00pm 14.1 11.2 4.4 52 4.5 N 9 13 5 7 - - 0.2
29/04:30pm 14.6 11.2 4.0 49 4.9 NNW 11 17 6 9 - - 0.2
29/04:00pm 14.9 11.6 4.3 49 5.0 N 11 17 6 9 - - 0.2
29/03:30pm 14.9 11.5 4.0 48 5.1 N 11 19 6 10 - - 0.2
29/03:00pm 15.2 13.0 6.0 54 4.5 N 7 15 4 8 - - 0.2
29/02:30pm 14.8 11.4 3.9 48 5.1 N 11 17 6 9 - - 0.2
29/02:00pm 14.5 12.0 4.5 51 4.7 N 7 15 4 8 - - 0.2
29/01:30pm 13.6 10.2 4.2 53 4.4 NNW 11 19 6 10 - - 0.2
29/01:00pm 13.8 10.7 5.7 58 3.9 N 11 20 6 11 - - 0.2
29/12:30pm 13.1 9.8 4.8 57 3.9 N 11 20 6 11 - - 0.2
29/12:00pm 12.8 9.1 4.5 57 3.8 NNW 13 20 7 11 - - 0.2
29/11:30am 11.7 7.8 3.5 57 3.7 N 13 20 7 11 - - 0.0
29/11:00am 11.7 8.4 4.7 62 3.2 N 11 20 6 11 - - 0.0
29/10:30am 10.6 7.0 3.2 60 3.3 N 11 22 6 12 - - 0.0
29/10:00am 9.8 5.8 2.6 61 3.1 N 13 20 7 11 - - 0.0
29/09:30am 9.8 6.2 3.1 63 2.9 N 11 22 6 12 - - 0.0
29/09:00am 8.6 3.7 1.7 62 2.9 N 17 24 9 13 - - 0.8
29/08:30am 8.0 3.8 1.8 65 2.6 N 13 24 7 13 - - 0.8
29/08:00am 7.1 3.9 3.2 76 1.7 N 9 19 5 10 - - 0.8
29/07:30am 4.8 2.0 3.3 90 0.6 N 7 11 4 6 - - 0.8
29/07:00am 2.9 0.1 1.9 93 0.4 N 6 9 3 5 - - 0.8
29/06:30am 2.3 -0.3 1.1 92 0.5 N 4 6 2 3 - - 0.8
29/06:00am 2.5 0.3 1.3 92 0.5 N 2 6 1 3 - - 0.8
29/05:30am 2.6 -0.3 1.4 92 0.5 NNE 6 7 3 4 - - 0.8
29/05:00am 2.2 -0.4 0.9 91 0.5 N 4 6 2 3 - - 0.8
29/04:30am 2.8 -0.1 1.3 90 0.6 NE 6 9 3 5 - - 0.8
29/04:00am 2.8 0.6 1.0 88 0.7 NNE 2 6 1 3 - - 0.8
29/03:30am 3.4 1.2 1.3 86 0.8 ENE 2 6 1 3 - - 0.8
29/03:00am 4.3 2.6 2.0 85 0.9 CALM 0 0 0 0 - - 0.8
29/02:30am 5.3 2.7 3.0 85 1.0 ENE 6 9 3 5 - - 0.8
29/02:00am 5.3 3.5 3.3 87 0.8 ENE 2 7 1 4 - - 0.8
29/01:30am 5.3 3.9 3.5 88 0.8 CALM 0 6 0 3 - - 0.8
29/01:00am 5.3 3.9 3.5 88 0.8 CALM 0 0 0 0 - - 0.8
29/12:30am 5.3 3.9 3.6 89 0.7 CALM 0 0 0 0 - - 0.8
29/12:00am 5.0 3.6 3.3 89 0.7 CALM 0 0 0 0 - - 0.8
 
Date/Time
WST
Temp
°C
App
Temp
°C
Dew
Point
°C
Rel
Hum
%
Delta-T
°C
Wind Press
QNH
hPa
Press
MSL
hPa
Rain since
9am
mm
Dir  Spd
km/h
Gust
km/h
Spd
kts
Gust
kts
28/11:30pm 4.8 3.4 3.3 90 0.6 CALM 0 0 0 0 - - 0.8
28/11:00pm 4.6 3.1 2.9 89 0.7 CALM 0 0 0 0 - - 0.8
28/10:30pm 4.3 2.7 2.7 89 0.7 CALM 0 0 0 0 - - 0.8
28/10:00pm 3.8 2.1 1.8 87 0.8 CALM 0 0 0 0 - - 0.8
28/09:30pm 4.1 2.4 2.0 86 0.8 CALM 0 0 0 0 - - 0.8
28/09:00pm 4.6 2.6 2.3 85 0.9 S 2 7 1 4 - - 0.8
28/08:30pm 4.8 2.7 2.0 82 1.1 S 2 7 1 4 - - 0.8
28/08:00pm 5.5 3.9 2.2 79 1.4 CALM 0 6 0 3 - - 0.8
28/07:30pm 6.5 3.9 3.3 80 1.4 SSE 6 9 3 5 - - 0.8
28/07:00pm 6.3 4.4 2.8 78 1.5 SSW 2 6 1 3 - - 0.8
28/06:30pm 6.6 4.5 1.7 71 2.0 S 2 6 1 3 - - 0.8
28/06:00pm 8.0 4.3 2.3 67 2.4 S 11 19 6 10 - - 0.8
28/05:30pm 8.5 5.2 2.3 65 2.6 S 9 13 5 7 - - 0.8
28/05:00pm 8.9 4.7 1.8 61 3.0 SSW 13 20 7 11 - - 0.8
28/04:30pm 9.2 5.2 2.8 64 2.8 S 13 22 7 12 - - 0.8
28/04:00pm 9.2 5.2 2.8 64 2.8 S 13 20 7 11 - - 0.8
28/03:30pm 10.2 6.5 2.6 59 3.3 S 11 19 6 10 - - 0.8
28/03:00pm 9.8 5.7 2.2 59 3.3 S 13 26 7 14 - - 0.8
28/02:30pm 9.9 5.5 2.7 61 3.1 S 15 24 8 13 - - 0.8
28/02:00pm 10.4 5.6 2.7 59 3.4 SSW 17 35 9 19 - - 0.8
28/01:30pm 10.3 6.0 3.1 61 3.2 S 15 30 8 16 - - 0.8
28/01:00pm 9.7 5.5 3.9 67 2.6 SW 15 30 8 16 - - 0.8
28/12:30pm 8.0 3.6 4.9 81 1.4 S 17 28 9 15 - - 0.8
28/12:00pm 10.2 6.3 5.4 72 2.2 SSW 15 26 8 14 - - 0.6
28/11:30am 7.7 2.9 4.8 82 1.3 SSW 19 33 10 18 - - 0.6
28/11:00am 8.8 3.5 1.9 62 2.9 SSW 19 30 10 16 - - 0.6
28/10:30am 8.2 4.6 5.1 81 1.4 S 13 22 7 12 - - 0.6
28/10:00am 7.9 3.8 4.3 78 1.6 SSW 15 24 8 13 - - 0.2
28/09:30am 6.8 2.6 3.8 81 1.3 SW 15 30 8 16 - - 0.0
28/09:00am 7.4 3.7 4.7 83 1.2 SSW 13 22 7 12 - - 14.2
28/08:30am 6.4 2.9 3.4 81 1.3 SW 11 20 6 11 - - 14.2
28/08:00am 6.5 3.0 3.7 82 1.2 SSW 11 19 6 10 - - 14.0
28/07:30am 5.5 1.2 3.2 85 1.0 SSW 15 32 8 17 - - 14.0
28/07:00am 5.1 0.8 3.4 89 0.7 SW 15 28 8 15 - - 14.0
28/06:30am 4.3 1.4 2.8 90 0.6 SSW 7 13 4 7 - - 14.0
28/06:00am 4.0 -0.4 2.7 91 0.5 SSW 15 33 8 18 - - 14.0
28/05:30am 3.2 0.2 1.9 91 0.5 SW 7 13 4 7 - - 14.0
28/05:00am 3.7 0.8 2.4 91 0.5 SW 7 13 4 7 - - 14.0
28/04:30am 3.2 0.2 1.9 91 0.5 W 7 9 4 5 - - 14.0
28/04:00am 3.9 0.6 2.6 91 0.5 SW 9 17 5 9 - - 13.6
28/03:30am 4.1 0.1 2.9 92 0.5 SW 13 28 7 15 - - 13.6
28/03:00am 4.2 -0.1 3.0 92 0.5 SSW 15 28 8 15 - - 13.4
28/02:30am 4.0 0.7 2.7 91 0.5 SSW 9 19 5 10 - - 12.8
28/02:00am 4.3 -0.5 2.8 90 0.6 SSW 17 32 9 17 - - 12.8
28/01:30am 4.6 1.0 3.1 90 0.6 SW 11 19 6 10 - - 12.4
28/01:00am 4.5 0.2 3.0 90 0.6 SW 15 26 8 14 - - 12.4
28/12:30am 4.5 0.9 3.0 90 0.6 WSW 11 24 6 13 - - 12.0
28/12:00am 4.5 0.2 3.0 90 0.6 SSW 15 35 8 19 - - 11.2
 
Date/Time
WST
Temp
°C
App
Temp
°C
Dew
Point
°C
Rel
Hum
%
Delta-T
°C
Wind Press
QNH
hPa
Press
MSL
hPa
Rain since
9am
mm
Dir  Spd
km/h
Gust
km/h
Spd
kts
Gust
kts
27/11:30pm 4.7 0.0 3.2 90 0.6 SW 17 37 9 20 - - 11.0
27/11:00pm 4.6 0.2 2.9 89 0.7 SW 15 32 8 17 - - 10.4
27/10:30pm 4.8 1.2 3.1 89 0.7 WSW 11 22 6 12 - - 10.0
27/10:00pm 4.6 1.8 3.1 90 0.6 WSW 7 13 4 7 - - 9.4
27/09:30pm 4.7 1.1 3.0 89 0.7 WSW 11 22 6 12 - - 9.4
27/09:00pm 5.1 0.0 3.3 88 0.8 W 19 32 10 17 - - 8.0
27/08:30pm 5.5 0.9 3.7 88 0.8 WSW 17 32 9 17 - - 8.0
27/08:00pm 6.0 2.6 4.2 88 0.8 W 11 20 6 11 - - 7.6

Other Formats:

Comma delimited format used in spreadsheet applications
http://www.bom.gov.au/fwo/IDW60801/IDW60801.94631.axf

JavaScript Object Notation format (JSON) in row-major order
http://www.bom.gov.au/fwo/IDW60801/IDW60801.94631.json